Time;durP1;ratioP1;P1;durP2;ratioP2;P2;SDS_P1;SDS_P2;PMS_P1;PMS_P2;Temp;Humidity;BMP_temperature;BMP_pressure;BME280_temperature;BME280_humidity;BME280_pressure;Samples;Min_cycle;Max_cycle;Signal;HPM_P1;HPM_P2
2021/12/30 00:01:43;;;;;;;0.65;0.10;;;10.80;99.90;;;;;;4973059;28;20146;-85
2021/12/30 00:04:53;;;;;;;0.95;0.10;;;10.70;99.90;;;;;;4967032;28;20038;-85
2021/12/30 00:08:01;;;;;;;0.03;0.03;;;10.70;99.90;;;;;;4984056;28;20121;-85
2021/12/30 00:10:35;;;;;;;0.50;0.20;;;10.80;99.90;;;;;;4973649;28;20077;-85
2021/12/30 00:13:04;;;;;;;0.20;0.08;;;10.70;99.90;;;;;;4973729;28;20383;-85
2021/12/30 00:15:51;;;;;;;0.45;0.10;;;10.80;99.90;;;;;;4961014;28;20031;-86
2021/12/30 00:21:10;;;;;;;0.00;0.00;;;10.80;99.90;;;;;;4971172;28;20125;-85
2021/12/30 00:23:41;;;;;;;;;;;10.70;99.90;;;;;;4981916;28;20085;-85
2021/12/30 00:26:15;;;;;;;0.20;0.00;;;10.80;99.90;;;;;;4966851;28;19929;-85
2021/12/30 00:32:33;;;;;;;0.20;0.13;;;10.80;99.90;;;;;;4970901;28;20089;-85
2021/12/30 00:35:22;;;;;;;0.10;0.10;;;10.70;99.90;;;;;;4972344;28;20050;-85
2021/12/30 00:38:16;;;;;;;0.28;0.10;;;10.80;99.90;;;;;;4972940;28;20110;-85
2021/12/30 00:41:23;;;;;;;;;;;;;;;;;;;;;
2021/12/30 00:43:57;;;;;;;0.68;0.30;;;10.90;99.90;;;;;;4971993;28;20376;-85
2021/12/30 00:46:35;;;;;;;0.73;0.10;;;10.90;99.90;;;;;;4969182;28;20077;-85
2021/12/30 00:49:32;;;;;;;0.10;0.10;;;11.00;99.90;;;;;;4970404;28;20022;-85
2021/12/30 00:52:03;;;;;;;0.40;0.10;;;11.10;99.90;;;;;;4972756;28;20039;-85
2021/12/30 00:54:45;;;;;;;0.38;0.10;;;11.10;99.90;;;;;;4968233;28;20067;-85
2021/12/30 00:57:14;;;;;;;0.55;0.10;;;11.20;99.90;;;;;;4962705;28;20027;-86
2021/12/30 00:59:55;;;;;;;1.67;0.20;;;11.20;99.90;;;;;;4977511;28;20030;-85
2021/12/30 01:02:21;;;;;;;0.22;0.03;;;11.30;99.90;;;;;;4980621;28;20027;-85
2021/12/30 01:05:16;;;;;;;0.17;0.00;;;11.20;99.90;;;;;;4974594;28;20081;-86
2021/12/30 01:07:51;;;;;;;0.85;0.30;;;11.20;99.90;;;;;;4973246;28;20031;-85
2021/12/30 01:10:20;;;;;;;0.52;0.13;;;11.20;99.90;;;;;;4974096;28;20045;-85
2021/12/30 01:12:46;;;;;;;0.30;0.20;;;11.20;99.90;;;;;;4973073;28;20566;-85
2021/12/30 01:15:33;;;;;;;1.25;0.00;;;11.10;99.90;;;;;;4972429;28;20031;-85
2021/12/30 01:21:31;;;;;;;0.13;0.10;;;11.00;99.90;;;;;;4950993;29;20050;-85
2021/12/30 01:23:57;;;;;;;0.70;0.10;;;11.00;99.90;;;;;;4951639;29;20623;-85
2021/12/30 01:26:39;;;;;;;0.28;0.10;;;11.20;99.90;;;;;;4953178;28;21025;-85
2021/12/30 01:29:36;;;;;;;0.32;0.10;;;11.10;99.90;;;;;;4972114;28;20038;-85
2021/12/30 01:32:43;;;;;;;0.75;0.10;;;11.00;99.90;;;;;;4953340;28;20127;-85
2021/12/30 01:35:15;;;;;;;0.70;0.10;;;11.00;99.90;;;;;;4968001;28;20074;-85
2021/12/30 01:38:29;;;;;;;0.10;0.10;;;11.10;99.90;;;;;;4971206;28;20054;-84
2021/12/30 01:44:44;;;;;;;;;;;;;;;;;;;;;
2021/12/30 01:47:17;;;;;;;0.30;0.15;;;10.90;99.90;;;;;;4896958;29;20039;-85
2021/12/30 01:52:50;;;;;;;0.85;0.20;;;10.80;99.90;;;;;;1284894;26;20055;-84
2021/12/30 01:55:22;;;;;;;1.95;0.20;;;10.80;99.90;;;;;;4977448;28;20043;-86
2021/12/30 01:58:04;;;;;;;0.30;0.13;;;10.80;99.90;;;;;;4978295;28;20487;-85
2021/12/30 02:00:34;;;;;;;0.52;0.17;;;10.80;99.90;;;;;;4971155;28;20039;-85
2021/12/30 02:03:05;;;;;;;1.10;0.13;;;10.80;99.90;;;;;;4970875;28;20062;-85
2021/12/30 02:05:32;;;;;;;0.40;0.10;;;10.90;99.90;;;;;;4971819;28;20105;-85
2021/12/30 02:08:15;;;;;;;0.70;0.10;;;11.00;99.90;;;;;;4987906;28;20011;-85
2021/12/30 02:13:47;;;;;;;1.48;0.20;;;10.80;99.90;;;;;;4977467;28;20026;-85
2021/12/30 02:16:18;;;;;;;0.47;0.10;;;10.70;99.90;;;;;;4987861;28;20129;-85
2021/12/30 02:19:26;;;;;;;0.43;0.27;;;10.70;99.90;;;;;;4987955;28;20493;-85
2021/12/30 02:22:44;;;;;;;1.00;0.10;;;10.60;99.90;;;;;;4977043;28;20117;-85
2021/12/30 02:25:15;;;;;;;0.22;0.10;;;10.60;99.90;;;;;;4982618;28;20482;-85
2021/12/30 02:28:17;;;;;;;0.77;0.10;;;10.50;99.90;;;;;;4976465;28;20019;-84
2021/12/30 02:30:59;;;;;;;0.28;0.10;;;10.40;99.90;;;;;;4974453;28;20121;-85
2021/12/30 02:33:31;;;;;;;2.63;0.55;;;10.40;99.90;;;;;;4972649;28;20179;-85
2021/12/30 02:36:08;;;;;;;0.20;0.08;;;10.40;99.90;;;;;;4974403;28;20483;-85
2021/12/30 02:38:44;;;;;;;1.65;0.20;;;10.40;99.90;;;;;;5008449;28;20069;-85
2021/12/30 02:41:25;;;;;;;0.68;0.10;;;10.40;99.90;;;;;;5007785;28;20061;-85
2021/12/30 02:44:08;;;;;;;0.97;0.10;;;10.40;99.90;;;;;;4988147;28;20469;-85
2021/12/30 02:46:39;;;;;;;0.00;0.00;;;10.30;99.90;;;;;;4990754;28;20124;-84
2021/12/30 02:49:22;;;;;;;0.40;0.10;;;10.30;99.90;;;;;;5004285;28;20030;-84
2021/12/30 02:51:53;;;;;;;1.02;0.20;;;10.20;99.90;;;;;;4985061;28;20020;-84
2021/12/30 02:57:16;;;;;;;0.50;0.30;;;10.20;99.90;;;;;;4986526;28;20038;-84
2021/12/30 02:59:53;;;;;;;1.35;0.30;;;10.10;99.90;;;;;;4985012;28;20394;-84
2021/12/30 03:02:24;;;;;;;0.10;0.10;;;10.10;99.90;;;;;;4983094;28;20118;-84
2021/12/30 03:04:50;;;;;;;1.83;0.20;;;10.10;99.90;;;;;;4993360;28;20321;-84
2021/12/30 03:07:18;;;;;;;0.63;0.17;;;10.10;99.90;;;;;;4989695;28;20046;-84
2021/12/30 03:12:19;;;;;;;0.43;0.17;;;10.10;99.90;;;;;;4078281;26;20148;-89
2021/12/30 03:14:46;;;;;;;0.43;0.10;;;10.10;99.90;;;;;;4994070;28;20046;-89
2021/12/30 03:17:12;;;;;;;0.85;0.30;;;10.00;99.90;;;;;;4991971;28;20034;-89
2021/12/30 03:19:38;;;;;;;0.68;0.32;;;10.10;99.90;;;;;;4992158;28;20030;-89
2021/12/30 03:22:04;;;;;;;0.30;0.13;;;10.10;99.90;;;;;;4989698;28;20019;-89
2021/12/30 03:24:35;;;;;;;1.50;0.20;;;10.00;99.90;;;;;;4991284;28;20031;-89
2021/12/30 03:27:03;;;;;;;0.10;0.10;;;10.10;99.90;;;;;;4986922;28;20030;-89
2021/12/30 03:29:28;;;;;;;0.25;0.10;;;10.00;99.90;;;;;;4990040;28;20023;-89
2021/12/30 03:31:57;;;;;;;0.47;0.10;;;10.00;99.90;;;;;;4991864;28;20094;-88
2021/12/30 03:34:23;;;;;;;1.08;0.30;;;10.00;99.90;;;;;;4982494;28;20479;-89
2021/12/30 03:36:49;;;;;;;1.70;0.30;;;9.90;99.90;;;;;;4987763;28;20062;-89
2021/12/30 03:39:15;;;;;;;0.22;0.10;;;10.00;99.90;;;;;;4987144;28;20054;-89
2021/12/30 03:41:46;;;;;;;1.55;0.20;;;10.00;99.90;;;;;;4982378;28;20027;-89
2021/12/30 03:44:11;;;;;;;0.13;0.10;;;10.10;99.90;;;;;;4989065;28;20065;-89
2021/12/30 03:46:37;;;;;;;0.50;0.10;;;10.00;99.90;;;;;;4991564;28;20042;-89
2021/12/30 03:49:05;;;;;;;0.70;0.40;;;10.00;99.90;;;;;;4993099;28;20394;-89
2021/12/30 03:51:38;;;;;;;0.90;0.30;;;10.10;99.90;;;;;;4989054;28;20065;-89
2021/12/30 03:54:03;;;;;;;;;;;10.20;99.90;;;;;;4997940;28;20450;-89
2021/12/30 03:56:30;;;;;;;1.37;0.40;;;10.10;99.90;;;;;;4996517;28;19953;-89
2021/12/30 03:58:56;;;;;;;0.70;0.20;;;10.20;99.90;;;;;;4991352;28;20065;-89
2021/12/30 04:01:24;;;;;;;0.82;0.20;;;10.30;99.90;;;;;;4992197;28;20034;-89
2021/12/30 04:03:51;;;;;;;0.33;0.20;;;10.30;99.90;;;;;;4992197;28;20456;-89
2021/12/30 04:06:17;;;;;;;0.50;0.20;;;10.30;99.90;;;;;;4992928;28;20026;-89
2021/12/30 04:08:43;;;;;;;1.25;0.20;;;10.30;99.90;;;;;;5007976;28;20041;-88
2021/12/30 04:11:09;;;;;;;2.37;0.30;;;10.30;99.90;;;;;;4992415;28;20033;-89
2021/12/30 04:13:41;;;;;;;0.40;0.10;;;10.20;99.90;;;;;;4974526;28;20041;-89
2021/12/30 04:16:07;;;;;;;0.20;0.10;;;10.30;99.90;;;;;;4980557;28;20014;-89
2021/12/30 04:18:35;;;;;;;0.87;0.40;;;10.30;99.90;;;;;;4993185;28;20049;-89
2021/12/30 04:21:00;;;;;;;2.95;0.20;;;10.20;99.90;;;;;;4988579;28;20030;-89
2021/12/30 04:23:26;;;;;;;1.07;0.30;;;10.20;99.90;;;;;;5004706;28;20030;-89
2021/12/30 04:25:54;;;;;;;1.67;0.20;;;10.30;99.90;;;;;;4979912;28;20030;-87
2021/12/30 04:28:20;;;;;;;1.63;0.20;;;10.40;99.90;;;;;;4998988;28;20154;-89
2021/12/30 04:30:46;;;;;;;0.33;0.20;;;10.30;99.90;;;;;;4995401;28;20094;-88
2021/12/30 04:33:12;;;;;;;0.77;0.20;;;10.30;99.90;;;;;;4992863;28;20033;-88
2021/12/30 04:35:37;;;;;;;0.65;0.10;;;10.30;99.90;;;;;;4992428;28;20069;-87
2021/12/30 04:38:03;;;;;;;0.93;0.20;;;10.30;99.90;;;;;;5010090;28;20037;-89
2021/12/30 04:40:29;;;;;;;0.30;0.17;;;10.30;99.90;;;;;;4988259;28;20022;-89
2021/12/30 04:42:55;;;;;;;0.63;0.20;;;10.30;99.90;;;;;;4978507;28;20272;-88
2021/12/30 04:45:21;;;;;;;0.20;0.10;;;10.30;99.90;;;;;;4987820;28;20117;-89
2021/12/30 04:47:47;;;;;;;0.20;0.10;;;10.30;99.90;;;;;;4990712;28;20183;-88
2021/12/30 04:50:13;;;;;;;0.50;0.20;;;10.30;99.90;;;;;;4991243;28;20026;-88
2021/12/30 04:52:39;;;;;;;0.63;0.30;;;10.30;99.90;;;;;;4986889;28;20019;-88
2021/12/30 04:55:06;;;;;;;0.50;0.20;;;10.30;99.90;;;;;;5008487;28;20050;-89
2021/12/30 04:57:31;;;;;;;0.93;0.20;;;10.40;99.90;;;;;;4991623;28;20030;-89
2021/12/30 04:59:57;;;;;;;1.40;0.20;;;10.40;99.90;;;;;;4992711;28;20041;-89
2021/12/30 05:02:34;;;;;;;0.30;0.10;;;10.40;99.90;;;;;;4984320;28;20034;-88
2021/12/30 05:05:00;;;;;;;0.20;0.10;;;10.40;99.90;;;;;;4988629;28;20140;-88
2021/12/30 05:07:25;;;;;;;0.30;0.20;;;10.40;99.90;;;;;;4984540;28;20546;-89
2021/12/30 05:09:51;;;;;;;0.63;0.20;;;10.40;99.90;;;;;;4991719;28;20471;-89
2021/12/30 05:12:17;;;;;;;1.00;0.20;;;10.40;99.90;;;;;;4988285;28;20117;-88
2021/12/30 05:14:42;;;;;;;0.43;0.10;;;10.40;99.90;;;;;;4988522;28;20049;-88
2021/12/30 05:17:10;;;;;;;0.37;0.13;;;10.40;99.90;;;;;;4987232;28;20042;-88
2021/12/30 05:19:36;;;;;;;0.33;0.13;;;10.40;99.90;;;;;;4990983;28;20055;-88
2021/12/30 05:22:02;;;;;;;0.60;0.10;;;10.40;99.90;;;;;;4981812;28;20038;-89
2021/12/30 05:24:27;;;;;;;1.17;0.20;;;10.40;99.90;;;;;;4983472;28;20471;-89
2021/12/30 05:26:59;;;;;;;0.23;0.10;;;10.40;99.90;;;;;;5007651;28;20061;-88
2021/12/30 05:29:24;;;;;;;0.30;0.20;;;10.40;99.90;;;;;;4993349;28;20109;-89
2021/12/30 05:31:50;;;;;;;1.27;0.10;;;10.40;99.90;;;;;;4987733;28;20106;-89
2021/12/30 05:34:16;;;;;;;1.27;0.20;;;10.40;99.90;;;;;;4988735;28;20101;-89
2021/12/30 05:36:41;;;;;;;0.85;0.20;;;10.40;99.90;;;;;;4990220;28;20029;-89
2021/12/30 05:39:08;;;;;;;1.03;0.30;;;10.40;99.90;;;;;;4989278;28;21185;-89
2021/12/30 05:41:34;;;;;;;0.10;0.10;;;10.40;99.90;;;;;;4987565;28;20019;-89
2021/12/30 05:44:00;;;;;;;0.30;0.15;;;10.40;99.90;;;;;;4985977;28;20033;-89
2021/12/30 05:46:27;;;;;;;0.97;0.20;;;10.40;99.90;;;;;;4988803;28;20022;-89
2021/12/30 05:48:53;;;;;;;1.10;0.20;;;10.40;99.90;;;;;;4986939;28;20033;-89
2021/12/30 05:51:19;;;;;;;0.20;0.10;;;10.60;99.90;;;;;;4989045;28;20034;-89
2021/12/30 05:53:44;;;;;;;3.40;0.20;;;10.50;99.90;;;;;;4997629;28;20026;-89
2021/12/30 05:56:10;;;;;;;1.70;0.10;;;10.40;99.90;;;;;;4990461;28;20076;-89
2021/12/30 05:58:35;;;;;;;0.00;0.00;;;10.60;99.90;;;;;;4988033;28;20030;-89
2021/12/30 06:01:01;;;;;;;0.43;0.10;;;10.60;99.90;;;;;;4990074;28;20058;-89
2021/12/30 06:03:27;;;;;;;0.10;0.10;;;10.60;99.90;;;;;;4990415;28;20514;-89
2021/12/30 06:05:52;;;;;;;3.45;0.60;;;10.70;99.90;;;;;;4985495;28;20093;-88
2021/12/30 06:08:18;;;;;;;0.53;0.10;;;10.70;99.90;;;;;;4986979;28;20054;-88
2021/12/30 06:10:44;;;;;;;0.55;0.15;;;10.80;99.90;;;;;;4986249;28;20030;-88
2021/12/30 06:13:11;;;;;;;0.23;0.00;;;10.80;99.90;;;;;;5006800;28;20023;-89
2021/12/30 06:15:37;;;;;;;0.47;0.10;;;10.70;99.90;;;;;;4985258;28;20424;-88
2021/12/30 06:18:03;;;;;;;0.10;0.07;;;10.80;99.90;;;;;;5006688;28;20030;-88
2021/12/30 06:20:30;;;;;;;3.42;0.10;;;10.80;99.90;;;;;;4987919;28;20055;-88
2021/12/30 06:22:56;;;;;;;0.13;0.00;;;10.90;99.90;;;;;;4975697;28;20072;-88
2021/12/30 06:25:22;;;;;;;0.17;0.00;;;10.80;99.90;;;;;;4989296;28;20027;-89
2021/12/30 06:27:48;;;;;;;0.20;0.20;;;10.90;99.90;;;;;;4990669;28;20045;-89
2021/12/30 06:30:14;;;;;;;0.10;0.03;;;10.90;99.90;;;;;;4988151;28;20022;-88
2021/12/30 06:32:40;;;;;;;0.10;0.03;;;10.90;99.90;;;;;;4984821;28;20034;-89
2021/12/30 06:35:08;;;;;;;0.20;0.03;;;10.90;99.90;;;;;;4979687;28;20673;-89
2021/12/30 06:37:34;;;;;;;0.13;0.00;;;10.90;99.90;;;;;;4988877;28;20036;-88
2021/12/30 06:40:00;;;;;;;0.10;0.00;;;10.90;99.90;;;;;;4999843;28;20030;-89
2021/12/30 06:42:26;;;;;;;0.10;0.10;;;10.90;99.90;;;;;;4986538;28;20033;-89
2021/12/30 06:44:51;;;;;;;0.67;0.10;;;11.00;99.90;;;;;;4990171;28;20057;-89
2021/12/30 06:47:17;;;;;;;0.10;0.00;;;11.00;99.90;;;;;;4991827;28;20026;-88
2021/12/30 06:49:43;;;;;;;0.10;0.10;;;11.00;99.90;;;;;;4986218;28;20057;-88
2021/12/30 06:52:11;;;;;;;0.00;0.00;;;11.00;99.90;;;;;;5005832;28;20026;-89
2021/12/30 06:54:37;;;;;;;0.07;0.00;;;11.00;99.90;;;;;;4987168;28;20041;-89
2021/12/30 06:57:06;;;;;;;0.10;0.00;;;11.00;99.90;;;;;;4980719;28;20031;-89
2021/12/30 06:59:32;;;;;;;0.00;0.00;;;11.00;99.90;;;;;;4986143;28;20045;-89
2021/12/30 07:01:58;;;;;;;0.00;0.00;;;11.00;99.90;;;;;;4988950;28;20084;-89
2021/12/30 07:04:25;;;;;;;0.00;0.00;;;11.10;99.90;;;;;;4986814;28;20030;-88
2021/12/30 07:06:54;;;;;;;0.32;0.20;;;11.00;99.90;;;;;;4986354;28;20023;-89
2021/12/30 07:09:20;;;;;;;0.00;0.00;;;11.00;99.90;;;;;;4984491;28;20093;-88
2021/12/30 07:11:48;;;;;;;0.10;0.08;;;11.00;99.90;;;;;;4989436;28;20019;-88
2021/12/30 07:14:16;;;;;;;0.30;0.00;;;11.10;99.90;;;;;;5000414;28;20163;-89
2021/12/30 07:16:42;;;;;;;2.83;0.10;;;11.10;99.90;;;;;;4991475;28;20018;-88
2021/12/30 07:19:07;;;;;;;0.30;0.10;;;11.00;99.90;;;;;;5009980;28;20069;-89
2021/12/30 07:21:33;;;;;;;0.20;0.10;;;11.10;99.90;;;;;;4990820;28;20036;-89
2021/12/30 07:23:58;;;;;;;0.15;0.10;;;11.00;99.90;;;;;;4986170;28;20054;-89
2021/12/30 07:26:24;;;;;;;0.40;0.20;;;11.00;99.90;;;;;;4982904;28;20065;-88
2021/12/30 07:28:50;;;;;;;0.10;0.08;;;11.10;99.90;;;;;;4983582;28;20537;-88
2021/12/30 07:31:15;;;;;;;0.30;0.10;;;11.10;99.90;;;;;;4992281;28;20049;-88
2021/12/30 07:33:41;;;;;;;0.20;0.20;;;11.10;99.90;;;;;;4994906;28;20497;-89
2021/12/30 07:36:06;;;;;;;0.20;0.10;;;11.10;99.90;;;;;;5006694;28;20030;-89
2021/12/30 07:38:32;;;;;;;0.75;0.10;;;11.10;99.90;;;;;;4992632;28;20372;-88
2021/12/30 07:40:58;;;;;;;0.50;0.17;;;11.10;99.90;;;;;;4992618;28;20037;-88
2021/12/30 07:43:23;;;;;;;0.57;0.20;;;11.20;99.90;;;;;;4987597;28;20057;-88
2021/12/30 07:45:51;;;;;;;0.50;0.10;;;11.10;99.90;;;;;;4990207;28;20185;-88
2021/12/30 07:48:18;;;;;;;0.32;0.13;;;11.10;99.90;;;;;;5008507;28;20065;-89
2021/12/30 07:50:44;;;;;;;0.37;0.10;;;11.10;99.90;;;;;;4990426;28;20034;-89
2021/12/30 07:53:09;;;;;;;0.20;0.10;;;11.10;99.90;;;;;;4988160;28;20064;-89
2021/12/30 07:55:35;;;;;;;0.10;0.10;;;11.20;99.90;;;;;;4986709;28;20037;-88
2021/12/30 07:58:04;;;;;;;0.10;0.10;;;11.20;99.90;;;;;;4990464;28;20398;-90
2021/12/30 08:00:33;;;;;;;0.15;0.10;;;11.30;99.90;;;;;;4988382;28;20030;-90
2021/12/30 08:12:22;;;;;;;0.75;0.20;;;11.40;99.90;;;;;;4984523;28;20030;-90
2021/12/30 08:15:02;;;;;;;0.93;0.30;;;11.30;99.90;;;;;;4991758;28;20023;-90
2021/12/30 08:17:39;;;;;;;0.32;0.10;;;11.30;99.90;;;;;;4980963;28;20372;-89
2021/12/30 08:20:27;;;;;;;0.30;0.10;;;11.40;99.90;;;;;;4983496;28;20154;-90
2021/12/30 08:23:05;;;;;;;0.63;0.20;;;11.30;99.90;;;;;;4990815;28;20037;-90
2021/12/30 08:25:54;;;;;;;0.15;0.10;;;11.30;99.90;;;;;;4990059;28;20026;-91
2021/12/30 08:28:29;;;;;;;0.80;0.20;;;11.40;99.90;;;;;;4985775;28;20045;-89
2021/12/30 08:31:28;;;;;;;0.30;0.10;;;11.40;99.90;;;;;;4991873;28;20092;-90
2021/12/30 08:34:04;;;;;;;0.10;0.03;;;11.60;99.90;;;;;;4989103;28;20033;-90
2021/12/30 08:36:34;;;;;;;0.50;0.03;;;11.50;99.90;;;;;;4992280;28;20034;-90
2021/12/30 08:39:06;;;;;;;0.15;0.10;;;11.50;99.90;;;;;;4988900;28;20042;-89
2021/12/30 08:41:39;;;;;;;0.45;0.10;;;11.60;99.90;;;;;;4983254;28;20110;-90
2021/12/30 08:44:28;;;;;;;0.10;0.00;;;11.60;99.90;;;;;;4988029;28;20502;-90
2021/12/30 08:47:23;;;;;;;0.30;0.10;;;11.60;99.90;;;;;;4986920;28;20112;-89
2021/12/30 08:50:23;;;;;;;;;;;;;;;;;;;;;
2021/12/30 08:53:08;;;;;;;0.38;0.13;;;11.60;99.90;;;;;;4983084;28;20103;-89
2021/12/30 08:56:00;;;;;;;0.60;0.10;;;11.70;99.90;;;;;;4988332;28;20022;-88
2021/12/30 08:59:03;;;;;;;0.52;0.00;;;11.60;99.90;;;;;;4993290;28;20031;-89
2021/12/30 09:01:29;;;;;;;0.63;0.30;;;11.60;99.90;;;;;;4962573;28;20089;-90
2021/12/30 09:04:01;;;;;;;0.73;0.15;;;11.60;99.90;;;;;;4987843;28;20027;-88
2021/12/30 09:06:42;;;;;;;0.17;0.00;;;11.70;99.90;;;;;;4990085;28;20671;-89
2021/12/30 09:09:14;;;;;;;0.10;0.00;;;11.60;99.90;;;;;;5002922;28;20034;-90
2021/12/30 09:11:48;;;;;;;0.00;0.00;;;11.80;99.90;;;;;;4990217;28;20034;-89
2021/12/30 09:14:34;;;;;;;0.45;0.10;;;11.80;99.90;;;;;;4983101;28;20035;-90
2021/12/30 09:17:15;;;;;;;1.13;0.13;;;11.90;99.90;;;;;;4990521;28;20023;-89
2021/12/30 09:19:51;;;;;;;0.00;0.00;;;12.00;99.90;;;;;;4988451;28;20026;-90
2021/12/30 09:22:52;;;;;;;0.20;0.00;;;12.10;99.90;;;;;;4985755;28;20027;-90
2021/12/30 09:30:27;;;;;;;0.10;0.00;;;12.30;99.90;;;;;;5004857;28;20058;-88
2021/12/30 09:32:57;;;;;;;0.50;0.08;;;12.40;99.90;;;;;;5000565;28;20023;-88
2021/12/30 09:35:23;;;;;;;0.05;0.00;;;12.40;99.90;;;;;;4983990;28;20026;-91
2021/12/30 09:37:52;;;;;;;0.20;0.10;;;12.50;99.90;;;;;;4998330;28;20037;-88
2021/12/30 09:40:18;;;;;;;0.13;0.05;;;12.60;99.90;;;;;;4999605;28;20023;-87
2021/12/30 09:47:00;;;;;;;0.97;0.20;;;12.70;99.90;;;;;;4976503;28;20053;-91
2021/12/30 09:50:00;;;;;;;;;;;;;;;;;;;;;
2021/12/30 09:52:34;;;;;;;0.70;0.15;;;12.70;99.90;;;;;;4996584;28;20086;-91
2021/12/30 09:55:09;;;;;;;0.25;0.00;;;12.70;99.90;;;;;;4998220;28;20669;-91
2021/12/30 09:57:37;;;;;;;0.17;0.08;;;12.70;99.90;;;;;;4996218;28;20022;-89
2021/12/30 10:03:46;;;;;;;0.40;0.05;;;12.90;99.90;;;;;;5001095;28;20026;-91
2021/12/30 10:06:26;;;;;;;0.35;0.08;;;12.80;99.90;;;;;;4998311;28;20253;-92
2021/12/30 10:15:51;;;;;;;0.20;0.05;;;12.90;99.90;;;;;;4982209;28;20035;-92
2021/12/30 10:18:50;;;;;;;0.55;0.10;;;12.80;99.90;;;;;;4984470;28;20026;-89
2021/12/30 10:21:34;;;;;;;0.00;0.00;;;12.80;99.90;;;;;;4993978;28;20081;-90
2021/12/30 10:24:22;;;;;;;0.00;0.00;;;12.70;99.90;;;;;;4988353;28;20037;-90
2021/12/30 10:27:09;;;;;;;0.13;0.03;;;12.80;99.90;;;;;;4967899;28;20050;-90
2021/12/30 10:29:54;;;;;;;0.47;0.10;;;12.80;99.90;;;;;;5000157;28;20039;-89
2021/12/30 10:32:53;;;;;;;0.20;0.05;;;12.90;99.90;;;;;;4995240;28;20042;-90
2021/12/30 10:35:25;;;;;;;1.02;0.17;;;12.80;99.90;;;;;;4998318;28;20039;-89
2021/12/30 10:38:08;;;;;;;0.10;0.03;;;12.90;99.90;;;;;;4993082;28;20031;-90
2021/12/30 10:40:50;;;;;;;0.10;0.00;;;12.90;99.90;;;;;;4983993;28;20070;-89
2021/12/30 10:43:57;;;;;;;;;;;;;;;;;;;;;
2021/12/30 10:46:28;;;;;;;0.30;0.10;;;13.00;99.90;;;;;;4995892;28;20094;-90
2021/12/30 10:49:18;;;;;;;0.82;0.20;;;13.10;99.90;;;;;;4990543;28;20085;-91
2021/12/30 10:52:16;;;;;;;0.47;0.10;;;13.20;99.90;;;;;;4998683;28;20034;-89
2021/12/30 10:54:59;;;;;;;1.77;0.10;;;13.20;99.90;;;;;;4975243;28;20053;-91
2021/12/30 10:57:37;;;;;;;;;;;13.30;99.90;;;;;;4993556;28;20048;-90
2021/12/30 11:00:25;;;;;;;0.10;0.00;;;13.30;99.90;;;;;;4994497;28;19941;-92
2021/12/30 11:03:14;;;;;;;0.85;0.13;;;13.40;99.90;;;;;;4995233;28;20089;-91
2021/12/30 11:05:40;;;;;;;0.15;0.10;;;13.60;99.90;;;;;;4989857;28;20042;-91
2021/12/30 11:08:24;;;;;;;3.40;0.47;;;13.60;99.90;;;;;;4973105;28;20077;-91
2021/12/30 11:10:55;;;;;;;0.45;0.10;;;13.70;99.90;;;;;;4969961;28;20043;-91
2021/12/30 11:13:30;;;;;;;1.15;0.20;;;13.80;99.90;;;;;;4986909;28;20031;-91
2021/12/30 11:16:05;;;;;;;0.17;0.10;;;13.80;99.90;;;;;;4987624;28;20492;-91
2021/12/30 11:19:07;;;;;;;0.30;0.00;;;13.80;99.90;;;;;;4983267;28;20044;-89
2021/12/30 11:21:47;;;;;;;0.55;0.10;;;13.90;99.90;;;;;;4966251;28;20094;-89
2021/12/30 11:24:34;;;;;;;0.17;0.00;;;14.00;99.90;;;;;;4992555;28;20062;-88
2021/12/30 11:27:19;;;;;;;0.35;0.10;;;14.10;99.90;;;;;;4992430;28;20026;-89
2021/12/30 11:29:55;;;;;;;0.03;0.00;;;14.20;99.90;;;;;;5003432;28;20046;-89
2021/12/30 11:32:36;;;;;;;0.22;0.00;;;14.40;99.90;;;;;;4973231;28;20035;-89
2021/12/30 11:35:07;;;;;;;0.55;0.10;;;14.50;99.90;;;;;;4999332;28;20038;-90
2021/12/30 11:37:37;;;;;;;0.65;0.10;;;14.50;99.90;;;;;;5005636;28;20023;-89
2021/12/30 11:40:10;;;;;;;0.50;0.10;;;14.50;99.90;;;;;;4990771;28;20038;-89
2021/12/30 11:42:41;;;;;;;0.03;0.00;;;14.50;99.90;;;;;;4983598;28;20037;-89
2021/12/30 11:45:35;;;;;;;0.10;0.00;;;14.50;99.90;;;;;;4984732;28;20030;-89
2021/12/30 11:48:05;;;;;;;0.08;0.00;;;14.50;99.90;;;;;;4998719;28;20046;-89
2021/12/30 11:50:34;;;;;;;0.00;0.00;;;14.50;99.90;;;;;;4985856;28;20022;-90
2021/12/30 11:53:11;;;;;;;0.00;0.00;;;14.60;99.90;;;;;;4990724;28;20068;-90
2021/12/30 11:56:26;;;;;;;0.17;0.00;;;14.60;99.90;;;;;;4989395;28;20046;-90
2021/12/30 11:58:59;;;;;;;0.28;0.00;;;14.70;99.90;;;;;;4911341;29;20059;-90
2021/12/30 12:01:35;;;;;;;0.10;0.00;;;14.80;99.90;;;;;;4980655;28;20090;-90
2021/12/30 12:04:07;;;;;;;0.30;0.00;;;14.90;99.90;;;;;;4987931;28;20043;-90
2021/12/30 12:06:47;;;;;;;0.00;0.00;;;15.00;99.90;;;;;;4986018;28;20026;-90
2021/12/30 12:09:31;;;;;;;0.20;0.00;;;15.00;99.90;;;;;;4987988;28;20090;-90
2021/12/30 12:12:53;;;;;;;0.45;0.10;;;15.10;99.90;;;;;;4986981;28;20058;-90
2021/12/30 12:15:15;;;;;;;0.63;0.00;;;14.90;99.90;;;;;;4990916;28;20102;-90
2021/12/30 12:17:59;;;;;;;;;;;;;;;;;;;;;
2021/12/30 12:23:46;;;;;;;0.00;0.00;;;14.90;99.90;;;;;;4993614;28;20030;-90
2021/12/30 12:26:21;;;;;;;0.30;0.00;;;15.00;99.90;;;;;;4983630;28;20038;-90
2021/12/30 12:29:11;;;;;;;0.00;0.00;;;15.10;99.90;;;;;;4995433;28;20406;-90
2021/12/30 12:32:11;;;;;;;0.00;0.00;;;15.10;99.90;;;;;;4980586;28;20034;-89
2021/12/30 12:34:47;;;;;;;0.20;0.00;;;15.10;99.90;;;;;;4959042;28;20038;-90
2021/12/30 12:37:37;;;;;;;0.00;0.00;;;15.10;99.90;;;;;;4998819;28;20034;-89
2021/12/30 12:40:26;;;;;;;0.00;0.00;;;15.10;99.90;;;;;;4987397;28;20081;-90
2021/12/30 12:43:16;;;;;;;0.20;0.00;;;15.20;99.90;;;;;;5000063;28;20057;-91
2021/12/30 12:46:03;;;;;;;0.30;0.10;;;15.20;99.90;;;;;;5002266;28;20026;-90
2021/12/30 12:48:38;;;;;;;0.22;0.00;;;15.10;99.90;;;;;;5004011;28;20251;-90
2021/12/30 12:51:30;;;;;;;1.25;0.08;;;15.10;99.90;;;;;;4985216;28;20054;-90
2021/12/30 12:54:03;;;;;;;0.00;0.00;;;15.10;99.90;;;;;;4960554;28;20043;-90
2021/12/30 12:56:37;;;;;;;1.45;0.08;;;15.00;99.90;;;;;;4973209;28;20106;-89
2021/12/30 12:59:07;;;;;;;0.00;0.00;;;15.00;99.90;;;;;;4986711;28;20022;-90
2021/12/30 13:01:35;;;;;;;0.15;0.00;;;15.00;99.90;;;;;;4981034;28;20034;-90
2021/12/30 13:04:11;;;;;;;0.10;0.00;;;15.00;99.90;;;;;;4982651;28;20060;-90
2021/12/30 13:06:42;;;;;;;1.27;0.03;;;14.90;99.90;;;;;;4985500;28;20026;-90
2021/12/30 13:09:17;;;;;;;0.00;0.00;;;14.90;99.90;;;;;;4986974;28;20507;-90
2021/12/30 13:11:52;;;;;;;0.00;0.00;;;14.80;99.90;;;;;;4984673;28;20458;-89
2021/12/30 13:14:29;;;;;;;0.00;0.00;;;14.90;99.90;;;;;;4986153;28;20053;-90
2021/12/30 13:17:04;;;;;;;0.10;0.00;;;15.10;99.90;;;;;;4984415;28;20038;-90
2021/12/30 13:19:36;;;;;;;0.00;0.00;;;15.10;99.90;;;;;;4983744;28;20057;-90
2021/12/30 13:22:25;;;;;;;0.43;0.00;;;15.00;99.90;;;;;;4980150;28;20042;-89
2021/12/30 13:25:00;;;;;;;0.00;0.00;;;15.00;99.90;;;;;;4995575;28;20101;-90
2021/12/30 13:27:40;;;;;;;0.13;0.00;;;14.90;99.90;;;;;;4995456;28;20030;-90
2021/12/30 13:30:15;;;;;;;0.00;0.00;;;14.80;99.90;;;;;;4988429;28;20528;-90
2021/12/30 13:32:47;;;;;;;0.15;0.00;;;14.70;99.90;;;;;;4992233;28;20023;-90
2021/12/30 13:35:37;;;;;;;0.00;0.00;;;14.70;99.90;;;;;;4991626;28;20061;-90
2021/12/30 13:38:11;;;;;;;0.00;0.00;;;14.70;99.90;;;;;;4993262;28;20028;-90
2021/12/30 13:40:41;;;;;;;0.00;0.00;;;14.50;99.90;;;;;;4985191;28;20026;-89
2021/12/30 13:43:10;;;;;;;0.45;0.00;;;14.60;99.90;;;;;;4990153;28;20026;-90
2021/12/30 13:45:41;;;;;;;0.00;0.00;;;14.60;99.90;;;;;;4991838;28;20037;-91
2021/12/30 13:48:26;;;;;;;0.40;0.20;;;14.50;99.90;;;;;;4994898;28;20026;-90
2021/12/30 13:51:04;;;;;;;0.10;0.00;;;14.50;99.90;;;;;;5011587;28;20018;-89
2021/12/30 13:54:06;;;;;;;0.03;0.00;;;14.40;99.90;;;;;;5012351;28;20022;-90
2021/12/30 13:57:05;;;;;;;0.47;0.00;;;14.30;99.90;;;;;;4987987;28;20023;-89
2021/12/30 14:02:35;;;;;;;0.38;0.10;;;14.20;99.90;;;;;;4997248;28;20034;-90
2021/12/30 14:05:39;;;;;;;;;;;;;;;;;;;;;
2021/12/30 14:08:17;;;;;;;0.30;0.10;;;14.10;99.90;;;;;;5006396;28;20060;-90
2021/12/30 14:11:06;;;;;;;;;;;;;;;;;;;;;
2021/12/30 14:13:47;;;;;;;0.03;0.00;;;14.00;99.90;;;;;;5008085;28;20057;-91
2021/12/30 14:16:50;;;;;;;0.10;0.00;;;14.00;99.90;;;;;;4986887;28;20122;-91
2021/12/30 14:19:27;;;;;;;0.30;0.10;;;14.00;99.90;;;;;;4985862;28;20054;-90
2021/12/30 14:21:54;;;;;;;0.20;0.00;;;14.00;99.90;;;;;;4996154;28;20025;-90
2021/12/30 14:24:40;;;;;;;0.40;0.00;;;13.90;99.90;;;;;;4993685;28;20060;-90
2021/12/30 14:27:25;;;;;;;0.13;0.03;;;13.90;99.90;;;;;;5000529;28;20061;-90
2021/12/30 14:30:13;;;;;;;0.15;0.00;;;13.90;99.90;;;;;;4997849;28;20021;-89
2021/12/30 14:32:57;;;;;;;0.20;0.00;;;13.90;99.90;;;;;;4995786;28;20034;-89
2021/12/30 14:35:44;;;;;;;;;;;;;;;;;;;;;
2021/12/30 14:38:34;;;;;;;0.20;0.10;;;13.80;99.90;;;;;;5007322;28;20054;-89
2021/12/30 14:41:36;;;;;;;0.10;0.10;;;13.80;99.90;;;;;;4994148;28;20088;-90